createdAt,value
2022-08-14T00:00:43.662Z,988.76
2022-08-14T00:01:43.685Z,988.89
2022-08-14T00:02:44.759Z,988.83
2022-08-14T00:03:43.648Z,988.80
2022-08-14T00:04:44.988Z,988.87
2022-08-14T00:05:44.330Z,988.86
2022-08-14T00:06:43.622Z,988.83
2022-08-14T00:07:43.705Z,988.79
2022-08-14T00:08:45.433Z,988.82
2022-08-14T00:10:01.988Z,988.82
2022-08-14T00:10:52.050Z,988.76
2022-08-14T00:11:44.605Z,988.76
2022-08-14T00:12:43.711Z,988.78
2022-08-14T00:13:43.599Z,988.77
2022-08-14T00:14:44.606Z,988.76
2022-08-14T00:15:48.063Z,988.73
2022-08-14T00:16:44.962Z,988.76
2022-08-14T00:17:47.840Z,988.77
2022-08-14T00:19:06.292Z,988.74
2022-08-14T00:19:44.560Z,988.73
2022-08-14T00:20:43.549Z,988.75
2022-08-14T00:21:43.544Z,988.69
2022-08-14T00:22:56.476Z,988.66
2022-08-14T00:23:44.553Z,988.65
2022-08-14T00:24:44.538Z,988.63
2022-08-14T00:25:43.507Z,988.65
2022-08-14T00:26:44.502Z,988.61
2022-08-14T00:27:43.514Z,988.62
2022-08-14T00:28:44.511Z,988.58
2022-08-14T00:29:43.528Z,988.57
2022-08-14T00:30:43.496Z,988.59
2022-08-14T00:31:45.549Z,988.56
2022-08-14T00:32:51.978Z,988.59
2022-08-14T00:33:52.247Z,988.60
2022-08-14T00:34:47.080Z,988.53
2022-08-14T00:36:35.991Z,988.52
2022-08-14T00:36:49.271Z,988.55
2022-08-14T00:37:43.448Z,988.56
2022-08-14T00:38:43.442Z,988.48
2022-08-14T00:39:43.481Z,988.46
2022-08-14T00:40:46.373Z,988.49
2022-08-14T00:41:43.438Z,988.54
2022-08-14T00:42:55.158Z,988.53
2022-08-14T00:43:44.412Z,988.51
2022-08-14T00:44:43.416Z,988.47
2022-08-14T00:45:43.439Z,988.43
2022-08-14T00:46:44.409Z,988.44
2022-08-14T00:47:45.213Z,988.40
2022-08-14T00:48:43.387Z,988.40
2022-08-14T00:49:43.693Z,988.41
2022-08-14T00:50:43.389Z,988.40
2022-08-14T00:51:43.394Z,988.39
2022-08-14T00:52:43.504Z,988.42
2022-08-14T00:53:43.751Z,988.44
2022-08-14T00:54:43.351Z,988.44
2022-08-14T00:55:43.367Z,988.38
2022-08-14T00:56:43.366Z,988.39
2022-08-14T00:57:43.338Z,988.46
2022-08-14T00:58:45.041Z,988.41
2022-08-14T00:59:44.337Z,988.42
2022-08-14T01:00:50.970Z,988.48
2022-08-14T01:01:44.409Z,988.39
2022-08-14T01:02:43.510Z,988.45
2022-08-14T01:03:43.312Z,988.42
2022-08-14T01:04:54.391Z,988.36
2022-08-14T01:05:51.771Z,988.42
2022-08-14T01:06:44.285Z,988.44
2022-08-14T01:07:50.301Z,988.35
2022-08-14T01:08:51.911Z,988.37
2022-08-14T01:09:44.332Z,988.36
2022-08-14T01:10:43.291Z,988.35
2022-08-14T01:11:45.034Z,988.28
2022-08-14T01:12:43.548Z,988.38
2022-08-14T01:13:43.447Z,988.32
2022-08-14T01:14:44.232Z,988.32
2022-08-14T01:15:58.397Z,988.32
2022-08-14T01:16:44.226Z,988.29
2022-08-14T01:17:45.863Z,988.34
2022-08-14T01:18:44.259Z,988.32
2022-08-14T01:19:44.224Z,988.28
2022-08-14T01:20:43.215Z,988.27
2022-08-14T01:21:47.227Z,988.29
2022-08-14T01:22:45.109Z,988.22
2022-08-14T01:23:47.095Z,988.21
2022-08-14T01:24:43.579Z,988.24
2022-08-14T01:25:43.185Z,988.25
2022-08-14T01:26:43.793Z,988.22
2022-08-14T01:27:57.694Z,988.24
2022-08-14T01:28:56.543Z,988.24
2022-08-14T01:30:04.329Z,988.20
2022-08-14T01:30:44.140Z,988.20
2022-08-14T01:31:43.150Z,988.19
2022-08-14T01:32:43.186Z,988.21
2022-08-14T01:33:59.336Z,988.23
2022-08-14T01:35:17.492Z,988.22
2022-08-14T01:36:03.816Z,988.15
2022-08-14T01:36:44.118Z,988.22
2022-08-14T01:37:44.184Z,988.24
2022-08-14T01:38:44.199Z,988.28
2022-08-14T01:39:44.144Z,988.21
2022-08-14T01:40:43.100Z,988.16
2022-08-14T01:41:43.392Z,988.17
2022-08-14T01:42:44.205Z,988.17
2022-08-14T01:43:43.072Z,988.20
2022-08-14T01:44:44.087Z,988.16
2022-08-14T01:45:48.987Z,988.14
2022-08-14T01:46:43.062Z,988.13
2022-08-14T01:47:43.075Z,988.22
2022-08-14T01:48:43.055Z,988.17
2022-08-14T01:49:46.290Z,988.16
2022-08-14T01:50:44.258Z,988.08
2022-08-14T01:51:43.037Z,988.12
2022-08-14T01:52:59.812Z,988.10
2022-08-14T01:53:44.025Z,988.10
2022-08-14T01:54:43.078Z,988.04
2022-08-14T01:55:43.018Z,988.05
2022-08-14T01:56:43.037Z,988.01
2022-08-14T01:57:49.516Z,988.04
2022-08-14T01:58:58.007Z,987.98
2022-08-14T01:59:44.008Z,988.05
2022-08-14T02:00:42.979Z,987.98
2022-08-14T02:01:51.393Z,988.01
2022-08-14T02:02:46.437Z,987.98
2022-08-14T02:03:42.965Z,987.96
2022-08-14T02:04:57.172Z,987.96
2022-08-14T02:05:43.949Z,987.95
2022-08-14T02:06:42.928Z,987.92
2022-08-14T02:07:53.734Z,987.98
2022-08-14T02:08:53.147Z,987.91
2022-08-14T02:09:43.940Z,987.96
2022-08-14T02:10:47.315Z,987.88
2022-08-14T02:11:42.927Z,987.92
2022-08-14T02:12:43.115Z,987.89
2022-08-14T02:13:43.105Z,987.85
2022-08-14T02:14:59.246Z,987.89
2022-08-14T02:15:44.145Z,987.87
2022-08-14T02:16:42.903Z,987.83
2022-08-14T02:17:42.892Z,987.80
2022-08-14T02:18:42.993Z,987.79
2022-08-14T02:19:42.875Z,987.78
2022-08-14T02:20:42.853Z,987.70
2022-08-14T02:21:46.870Z,987.71
2022-08-14T02:22:47.418Z,987.74
2022-08-14T02:23:42.861Z,987.73
2022-08-14T02:24:45.136Z,987.70
2022-08-14T02:25:42.833Z,987.68
2022-08-14T02:28:19.142Z,987.65
2022-08-14T02:28:25.440Z,987.62
2022-08-14T02:28:57.423Z,987.67
2022-08-14T02:29:56.456Z,987.66
2022-08-14T02:30:43.819Z,987.68
2022-08-14T02:31:43.829Z,987.64
2022-08-14T02:32:42.806Z,987.65
2022-08-14T02:33:42.827Z,987.63
2022-08-14T02:34:42.791Z,987.63
2022-08-14T02:35:42.802Z,987.66
2022-08-14T02:37:04.801Z,987.66
2022-08-14T02:37:47.396Z,987.61
2022-08-14T02:38:43.774Z,987.64
2022-08-14T02:39:42.796Z,987.59
2022-08-14T02:40:42.860Z,987.67
2022-08-14T02:41:52.500Z,987.66
2022-08-14T02:42:55.269Z,987.68
2022-08-14T02:43:48.383Z,987.69
2022-08-14T02:44:43.120Z,987.62
2022-08-14T02:45:44.470Z,987.58
2022-08-14T02:46:42.827Z,987.58
2022-08-14T02:47:47.473Z,987.57
2022-08-14T02:49:03.523Z,987.57
2022-08-14T02:49:43.708Z,987.53
2022-08-14T02:50:42.702Z,987.52
2022-08-14T02:51:43.706Z,987.64
2022-08-14T02:52:57.880Z,987.53
2022-08-14T02:53:43.682Z,987.62
2022-08-14T02:54:42.684Z,987.65
2022-08-14T02:55:42.677Z,987.47
2022-08-14T02:57:14.301Z,987.52
2022-08-14T02:57:43.793Z,987.40
2022-08-14T02:58:42.659Z,987.39
2022-08-14T02:59:43.285Z,987.43
2022-08-14T03:00:42.666Z,987.34
2022-08-14T03:01:43.689Z,987.32
2022-08-14T03:02:55.887Z,987.36
2022-08-14T03:03:43.629Z,987.30
2022-08-14T03:04:42.625Z,987.30
2022-08-14T03:05:42.610Z,987.41
2022-08-14T03:06:57.940Z,987.41
2022-08-14T03:07:42.594Z,987.42
2022-08-14T03:08:46.084Z,987.43
2022-08-14T03:10:25.633Z,987.40
2022-08-14T03:10:48.662Z,987.38
2022-08-14T03:11:44.771Z,987.37
2022-08-14T03:12:42.554Z,987.34
2022-08-14T03:13:42.653Z,987.30
2022-08-14T03:14:43.564Z,987.34
2022-08-14T03:15:42.574Z,987.36
2022-08-14T03:16:42.540Z,987.35
2022-08-14T03:17:57.487Z,987.36
2022-08-14T03:18:43.682Z,987.39
2022-08-14T03:19:42.531Z,987.33
2022-08-14T03:20:42.534Z,987.32
2022-08-14T03:21:42.526Z,987.31
2022-08-14T03:22:42.578Z,987.30
2022-08-14T03:23:42.934Z,987.29
2022-08-14T03:24:42.635Z,987.30
2022-08-14T03:25:42.504Z,987.30
2022-08-14T03:26:42.501Z,987.26
2022-08-14T03:27:48.401Z,987.22
2022-08-14T03:28:42.474Z,987.28
2022-08-14T03:29:42.527Z,987.23
2022-08-14T03:30:42.468Z,987.24
2022-08-14T03:31:42.480Z,987.21
2022-08-14T03:32:42.520Z,987.16
2022-08-14T03:33:43.122Z,987.20
2022-08-14T03:34:48.514Z,987.16
2022-08-14T03:36:05.472Z,987.16
2022-08-14T03:37:28.781Z,987.13
2022-08-14T03:39:10.652Z,987.16
2022-08-14T03:39:14.959Z,987.14
2022-08-14T03:39:43.507Z,987.10
2022-08-14T03:40:42.471Z,987.06
2022-08-14T03:41:42.412Z,987.09
2022-08-14T03:42:42.449Z,987.10
2022-08-14T03:43:42.397Z,987.06
2022-08-14T03:45:20.037Z,987.07
2022-08-14T03:45:48.684Z,987.05
2022-08-14T03:46:52.232Z,987.02
2022-08-14T03:47:56.034Z,987.00
2022-08-14T03:48:43.382Z,987.00
2022-08-14T03:49:42.689Z,986.97
2022-08-14T03:50:42.356Z,986.94
2022-08-14T03:51:42.373Z,986.88
2022-08-14T03:52:55.687Z,986.91
2022-08-14T03:53:43.350Z,986.87
2022-08-14T03:54:42.335Z,986.83
2022-08-14T03:55:42.308Z,986.82
2022-08-14T03:56:43.363Z,986.83
2022-08-14T03:57:42.707Z,986.80
2022-08-14T03:58:42.330Z,986.82
2022-08-14T03:59:42.290Z,986.79
2022-08-14T04:00:44.805Z,986.79
2022-08-14T04:01:45.826Z,986.79
2022-08-14T04:02:46.763Z,986.80
2022-08-14T04:03:42.295Z,986.77
2022-08-14T04:04:42.284Z,986.80
2022-08-14T04:05:43.092Z,986.76
2022-08-14T04:06:44.523Z,986.71
2022-08-14T04:08:00.143Z,986.72
2022-08-14T04:08:43.268Z,986.73
2022-08-14T04:09:42.276Z,986.73
2022-08-14T04:10:42.254Z,986.69
2022-08-14T04:11:42.284Z,986.75
2022-08-14T04:12:42.373Z,986.75
2022-08-14T04:13:43.227Z,986.73
2022-08-14T04:14:42.250Z,986.74
2022-08-14T04:16:01.019Z,986.74
2022-08-14T04:16:42.233Z,986.71
2022-08-14T04:17:42.241Z,986.70
2022-08-14T04:18:42.446Z,986.72
2022-08-14T04:19:42.193Z,986.70
2022-08-14T04:20:54.329Z,986.68
2022-08-14T04:22:03.185Z,986.73
2022-08-14T04:22:43.372Z,986.75
2022-08-14T04:23:42.213Z,986.71
2022-08-14T04:24:42.189Z,986.66
2022-08-14T04:25:42.203Z,986.69
2022-08-14T04:26:43.353Z,986.65
2022-08-14T04:28:01.665Z,986.61
2022-08-14T04:29:08.943Z,986.59
2022-08-14T04:29:44.827Z,986.63
2022-08-14T04:30:43.159Z,986.60
2022-08-14T04:32:58.136Z,986.65
2022-08-14T04:33:10.698Z,986.61
2022-08-14T04:33:43.106Z,986.57
2022-08-14T04:34:42.287Z,986.56
2022-08-14T04:35:53.550Z,986.57
2022-08-14T04:36:42.096Z,986.50
2022-08-14T04:37:42.226Z,986.50
2022-08-14T04:38:42.084Z,986.49
2022-08-14T04:39:46.426Z,986.47
2022-08-14T04:40:42.066Z,986.52
2022-08-14T04:41:43.164Z,986.43
2022-08-14T04:42:47.272Z,986.55
2022-08-14T04:43:43.157Z,986.50
2022-08-14T04:44:42.058Z,986.46
2022-08-14T04:45:43.046Z,986.51
2022-08-14T04:46:56.250Z,986.45
2022-08-14T04:47:46.413Z,986.53
2022-08-14T04:48:43.734Z,986.51
2022-08-14T04:49:46.592Z,986.50
2022-08-14T04:50:44.534Z,986.56
2022-08-14T04:51:55.455Z,986.52
2022-08-14T04:52:43.182Z,986.55
2022-08-14T04:53:43.417Z,986.54
2022-08-14T04:54:42.046Z,986.56
2022-08-14T04:55:41.999Z,986.57
2022-08-14T04:56:42.736Z,986.55
2022-08-14T04:57:41.991Z,986.57
2022-08-14T04:58:41.979Z,986.53
2022-08-14T04:59:42.901Z,986.59
2022-08-14T05:00:41.974Z,986.59
2022-08-14T05:01:47.898Z,986.57
2022-08-14T05:02:43.311Z,986.52
2022-08-14T05:03:41.957Z,986.59
2022-08-14T05:04:45.152Z,986.59
2022-08-14T05:05:42.989Z,986.58
2022-08-14T05:06:41.952Z,986.53
2022-08-14T05:07:54.311Z,986.59
2022-08-14T05:08:57.040Z,986.59
2022-08-14T05:09:43.875Z,986.57
2022-08-14T05:10:44.173Z,986.64
2022-08-14T05:11:41.941Z,986.65
2022-08-14T05:13:13.018Z,986.63
2022-08-14T05:14:53.454Z,986.63
2022-08-14T05:15:42.900Z,986.65
2022-08-14T05:16:42.002Z,986.66
2022-08-14T05:17:44.085Z,986.71
2022-08-14T05:19:24.775Z,986.74
2022-08-14T05:19:44.273Z,986.78
2022-08-14T05:21:55.938Z,986.75
2022-08-14T05:21:59.859Z,986.73
2022-08-14T05:22:43.094Z,986.76
2022-08-14T05:23:42.061Z,986.72
2022-08-14T05:24:41.833Z,986.72
2022-08-14T05:25:41.811Z,986.70
2022-08-14T05:26:41.822Z,986.73
2022-08-14T05:27:41.940Z,986.66
2022-08-14T05:28:41.818Z,986.66
2022-08-14T05:29:41.963Z,986.72
2022-08-14T05:30:41.796Z,986.71
2022-08-14T05:31:41.774Z,986.62
2022-08-14T05:32:41.919Z,986.64
2022-08-14T05:33:41.790Z,986.64
2022-08-14T05:34:41.776Z,986.64
2022-08-14T05:35:42.601Z,986.57
2022-08-14T05:36:41.804Z,986.55
2022-08-14T05:37:46.072Z,986.59
2022-08-14T05:38:41.877Z,986.56
2022-08-14T05:39:41.776Z,986.57
2022-08-14T05:40:41.794Z,986.49
2022-08-14T05:41:53.499Z,986.53
2022-08-14T05:42:42.743Z,986.54
2022-08-14T05:43:42.747Z,986.47
2022-08-14T05:44:41.728Z,986.53
2022-08-14T05:45:41.748Z,986.55
2022-08-14T05:46:41.700Z,986.55
2022-08-14T05:47:41.741Z,986.46
2022-08-14T05:48:43.062Z,986.44
2022-08-14T05:49:41.725Z,986.46
2022-08-14T05:50:41.699Z,986.49
2022-08-14T05:51:41.679Z,986.56
2022-08-14T05:52:41.694Z,986.57
2022-08-14T05:53:42.151Z,986.60
2022-08-14T05:54:41.817Z,986.50
2022-08-14T05:55:44.249Z,986.58
2022-08-14T05:56:41.676Z,986.59
2022-08-14T05:57:41.661Z,986.55
2022-08-14T05:58:41.719Z,986.49
2022-08-14T05:59:41.638Z,986.52
2022-08-14T06:00:41.672Z,986.46
2022-08-14T06:01:41.670Z,986.49
2022-08-14T06:02:41.633Z,986.52
2022-08-14T06:03:41.634Z,986.55
2022-08-14T06:04:41.630Z,986.59
2022-08-14T06:05:41.638Z,986.54
2022-08-14T06:06:41.617Z,986.54
2022-08-14T06:07:41.600Z,986.59
2022-08-14T06:08:41.971Z,986.57
2022-08-14T06:09:41.583Z,986.58
2022-08-14T06:10:41.599Z,986.67
2022-08-14T06:11:41.679Z,986.58
2022-08-14T06:12:55.554Z,986.59
2022-08-14T06:13:44.999Z,986.65
2022-08-14T06:14:41.591Z,986.61
2022-08-14T06:15:41.553Z,986.57
2022-08-14T06:16:41.662Z,986.63
2022-08-14T06:17:46.994Z,986.59
2022-08-14T06:18:42.541Z,986.63
2022-08-14T06:19:41.523Z,986.63
2022-08-14T06:20:41.531Z,986.55
2022-08-14T06:21:41.517Z,986.60
2022-08-14T06:22:41.536Z,986.57
2022-08-14T06:23:41.504Z,986.52
2022-08-14T06:24:44.069Z,986.42
2022-08-14T06:25:41.482Z,986.42
2022-08-14T06:26:41.489Z,986.48
2022-08-14T06:27:42.600Z,986.45
2022-08-14T06:28:41.477Z,986.48
2022-08-14T06:29:41.487Z,986.45
2022-08-14T06:30:45.583Z,986.42
2022-08-14T06:31:42.486Z,986.44
2022-08-14T06:32:42.142Z,986.38
2022-08-14T06:35:02.186Z,986.41
2022-08-14T06:35:11.738Z,986.41
2022-08-14T06:35:42.453Z,986.39
2022-08-14T06:36:41.436Z,986.42
2022-08-14T06:37:41.617Z,986.46
2022-08-14T06:38:41.522Z,986.42
2022-08-14T06:39:41.408Z,986.42
2022-08-14T06:40:43.058Z,986.42
2022-08-14T06:41:57.953Z,986.42
2022-08-14T06:42:42.409Z,986.44
2022-08-14T06:43:45.183Z,986.38
2022-08-14T06:44:41.402Z,986.41
2022-08-14T06:45:42.081Z,986.36
2022-08-14T06:46:41.395Z,986.33
2022-08-14T06:47:43.955Z,986.38
2022-08-14T06:48:41.943Z,986.37
2022-08-14T06:49:45.005Z,986.36
2022-08-14T06:50:41.394Z,986.32
2022-08-14T06:51:44.501Z,986.28
2022-08-14T06:52:41.344Z,986.28
2022-08-14T06:53:42.331Z,986.34
2022-08-14T06:54:42.475Z,986.33
2022-08-14T06:55:41.350Z,986.32
2022-08-14T06:56:44.165Z,986.39
2022-08-14T06:57:41.327Z,986.39
2022-08-14T06:58:41.321Z,986.32
2022-08-14T06:59:41.295Z,986.39
2022-08-14T07:00:41.404Z,986.32
2022-08-14T07:01:41.353Z,986.42
2022-08-14T07:02:43.430Z,986.37
2022-08-14T07:03:42.286Z,986.33
2022-08-14T07:04:41.273Z,986.29
2022-08-14T07:05:41.293Z,986.29
2022-08-14T07:06:46.664Z,986.31
2022-08-14T07:07:41.274Z,986.36
2022-08-14T07:08:41.288Z,986.30
2022-08-14T07:09:50.725Z,986.31
2022-08-14T07:10:42.298Z,986.29
2022-08-14T07:11:41.259Z,986.21
2022-08-14T07:13:01.814Z,986.25
2022-08-14T07:13:42.249Z,986.20
2022-08-14T07:14:41.231Z,986.29
2022-08-14T07:15:42.370Z,986.25
2022-08-14T07:16:41.327Z,986.26
2022-08-14T07:17:41.227Z,986.22
2022-08-14T07:18:41.232Z,986.14
2022-08-14T07:19:41.205Z,986.11
2022-08-14T07:20:42.131Z,986.12
2022-08-14T07:21:41.227Z,986.17
2022-08-14T07:22:56.388Z,986.24
2022-08-14T07:23:44.306Z,986.13
2022-08-14T07:24:41.182Z,986.17
2022-08-14T07:25:42.173Z,986.12
2022-08-14T07:26:41.174Z,986.15
2022-08-14T07:27:42.864Z,986.13
2022-08-14T07:28:43.241Z,986.28
2022-08-14T07:29:41.170Z,986.26
2022-08-14T07:30:41.942Z,986.23
2022-08-14T07:31:42.172Z,986.22
2022-08-14T07:32:41.178Z,986.23
2022-08-14T07:33:41.815Z,986.20
2022-08-14T07:34:41.508Z,986.13
2022-08-14T07:35:57.960Z,986.16
2022-08-14T07:36:57.962Z,986.11
2022-08-14T07:37:41.141Z,986.06
2022-08-14T07:38:41.166Z,986.08
2022-08-14T07:39:43.984Z,986.13
2022-08-14T07:40:41.099Z,986.06
2022-08-14T07:41:42.454Z,986.13
2022-08-14T07:42:41.168Z,986.12
2022-08-14T07:43:41.105Z,986.07
2022-08-14T07:44:46.379Z,986.13
2022-08-14T07:45:42.101Z,986.19
2022-08-14T07:46:41.062Z,986.06
2022-08-14T07:47:41.075Z,986.02
2022-08-14T07:48:41.339Z,986.09
2022-08-14T07:49:41.084Z,986.11
2022-08-14T07:50:41.074Z,986.16
2022-08-14T07:51:41.038Z,986.08
2022-08-14T07:52:42.364Z,986.13
2022-08-14T07:53:41.263Z,986.04
2022-08-14T07:54:41.144Z,986.05
2022-08-14T07:55:41.019Z,986.05
2022-08-14T07:56:47.510Z,986.05
2022-08-14T07:57:42.010Z,986.00
2022-08-14T07:58:51.890Z,986.07
2022-08-14T07:59:44.271Z,986.02
2022-08-14T08:00:40.975Z,986.01
2022-08-14T08:01:48.309Z,986.01
2022-08-14T08:02:41.991Z,986.05
2022-08-14T08:03:40.988Z,985.99
2022-08-14T08:04:40.945Z,986.01
2022-08-14T08:05:40.965Z,986.01
2022-08-14T08:06:40.953Z,986.01
2022-08-14T08:07:40.928Z,985.97
2022-08-14T08:08:40.968Z,985.95
2022-08-14T08:09:40.925Z,985.96
2022-08-14T08:11:01.424Z,985.84
2022-08-14T08:11:40.942Z,985.83
2022-08-14T08:12:40.973Z,985.81
2022-08-14T08:13:40.912Z,985.77
2022-08-14T08:14:55.660Z,985.79
2022-08-14T08:15:42.093Z,985.82
2022-08-14T08:16:40.889Z,985.76
2022-08-14T08:17:42.819Z,985.82
2022-08-14T08:18:41.899Z,985.86
2022-08-14T08:19:41.073Z,985.84
2022-08-14T08:20:40.895Z,985.88
2022-08-14T08:21:43.542Z,985.88
2022-08-14T08:22:40.880Z,985.85
2022-08-14T08:23:51.003Z,985.86
2022-08-14T08:24:41.870Z,985.84
2022-08-14T08:25:40.847Z,985.93
2022-08-14T08:26:40.971Z,985.84
2022-08-14T08:27:44.691Z,985.89
2022-08-14T08:28:43.758Z,985.81
2022-08-14T08:29:40.832Z,985.84
2022-08-14T08:30:49.259Z,985.80
2022-08-14T08:31:44.866Z,985.76
2022-08-14T08:32:41.968Z,985.75
2022-08-14T08:33:40.819Z,985.73
2022-08-14T08:34:40.809Z,985.78
2022-08-14T08:35:46.823Z,985.82
2022-08-14T08:36:41.924Z,985.73
2022-08-14T08:37:43.597Z,985.74
2022-08-14T08:39:18.774Z,985.74
2022-08-14T08:40:01.265Z,985.65
2022-08-14T08:40:42.190Z,985.63
2022-08-14T08:41:40.764Z,985.61
2022-08-14T08:42:44.869Z,985.71
2022-08-14T08:43:47.187Z,985.67
2022-08-14T08:44:40.776Z,985.62
2022-08-14T08:45:40.790Z,985.53
2022-08-14T08:46:40.763Z,985.60
2022-08-14T08:47:40.761Z,985.56
2022-08-14T08:48:50.157Z,985.58
2022-08-14T08:49:43.287Z,985.57
2022-08-14T08:51:30.680Z,985.51
2022-08-14T08:52:31.022Z,985.50
2022-08-14T08:53:26.221Z,985.47
2022-08-14T08:54:26.398Z,985.53
2022-08-14T08:55:27.351Z,985.47
2022-08-14T08:56:30.228Z,985.55
2022-08-14T08:57:28.330Z,985.56
2022-08-14T08:58:27.364Z,985.47
2022-08-14T08:59:31.157Z,985.53
2022-08-14T09:00:28.321Z,985.45
2022-08-14T09:01:27.337Z,985.42
2022-08-14T09:02:36.795Z,985.41
2022-08-14T09:03:27.764Z,985.45
2022-08-14T09:04:27.304Z,985.43
2022-08-14T09:05:27.331Z,985.49
2022-08-14T09:06:56.947Z,985.50
2022-08-14T09:07:28.298Z,985.48
2022-08-14T09:08:32.678Z,985.48
2022-08-14T09:09:30.460Z,985.48
2022-08-14T09:10:29.295Z,985.52
2022-08-14T09:11:27.282Z,985.51
2022-08-14T09:12:32.515Z,985.49
2022-08-14T09:13:30.572Z,985.41
2022-08-14T09:14:27.273Z,985.53
2022-08-14T09:15:27.253Z,985.49
2022-08-14T09:16:28.268Z,985.43
2022-08-14T09:17:27.851Z,985.52
2022-08-14T09:18:27.245Z,985.45
2022-08-14T09:19:27.241Z,985.54
2022-08-14T09:20:30.699Z,985.58
2022-08-14T09:21:31.157Z,985.49
2022-08-14T09:22:36.167Z,985.53
2022-08-14T09:23:34.879Z,985.44
2022-08-14T09:24:35.356Z,985.46
2022-08-14T09:26:00.756Z,985.43
2022-08-14T09:26:28.656Z,985.34
2022-08-14T09:27:27.229Z,985.44
2022-08-14T09:28:27.190Z,985.47
2022-08-14T09:29:28.806Z,985.38
2022-08-14T09:30:31.046Z,985.43
2022-08-14T09:31:27.181Z,985.50
2022-08-14T09:32:58.725Z,985.47
2022-08-14T09:33:27.189Z,985.43
2022-08-14T09:34:27.907Z,985.46
2022-08-14T09:35:27.826Z,985.50
2022-08-14T09:36:27.171Z,985.46
2022-08-14T09:37:27.184Z,985.51
2022-08-14T09:38:27.340Z,985.46
2022-08-14T09:39:27.225Z,985.40
2022-08-14T09:40:29.293Z,985.48
2022-08-14T09:41:27.143Z,985.55
2022-08-14T09:42:33.072Z,985.49
2022-08-14T09:43:27.246Z,985.49
2022-08-14T09:44:27.149Z,985.44
2022-08-14T09:45:30.372Z,985.39
2022-08-14T09:46:28.134Z,985.38
2022-08-14T09:47:27.115Z,985.41
2022-08-14T09:48:30.716Z,985.42
2022-08-14T09:49:28.231Z,985.30
2022-08-14T09:50:27.140Z,985.15
2022-08-14T09:51:32.907Z,985.34
2022-08-14T09:52:34.201Z,985.25
2022-08-14T09:54:12.693Z,985.24
2022-08-14T09:54:28.202Z,985.27
2022-08-14T09:55:27.838Z,985.33
2022-08-14T09:56:30.839Z,985.35
2022-08-14T09:57:27.680Z,985.26
2022-08-14T09:58:27.092Z,985.32
2022-08-14T09:59:28.370Z,985.28
2022-08-14T10:00:29.588Z,985.32
2022-08-14T10:01:27.075Z,985.29
2022-08-14T10:02:28.419Z,985.29
2022-08-14T10:03:28.714Z,985.28
2022-08-14T10:04:34.744Z,985.19
2022-08-14T10:05:28.159Z,985.13
2022-08-14T10:06:28.370Z,985.19
2022-08-14T10:07:27.035Z,985.29
2022-08-14T10:08:27.023Z,985.22
2022-08-14T10:09:28.054Z,985.13
2022-08-14T10:10:27.034Z,985.02
2022-08-14T10:11:34.967Z,985.10
2022-08-14T10:12:29.223Z,985.11
2022-08-14T10:13:27.021Z,985.15
2022-08-14T10:14:29.427Z,985.07
2022-08-14T10:15:27.762Z,985.11
2022-08-14T10:16:32.968Z,985.15
2022-08-14T10:17:32.920Z,985.03
2022-08-14T10:18:28.004Z,984.87
2022-08-14T10:19:26.991Z,984.96
2022-08-14T10:20:40.548Z,984.92
2022-08-14T10:21:28.003Z,984.90
2022-08-14T10:23:15.202Z,984.81
2022-08-14T10:23:33.974Z,984.63
2022-08-14T10:24:36.125Z,984.67
2022-08-14T10:25:27.977Z,984.75
2022-08-14T10:26:28.617Z,984.71
2022-08-14T10:27:27.157Z,984.72
2022-08-14T10:28:29.125Z,984.72
2022-08-14T10:29:26.940Z,984.58
2022-08-14T10:30:26.938Z,984.64
2022-08-14T10:31:27.113Z,984.53
2022-08-14T10:32:28.560Z,984.70
2022-08-14T10:33:26.926Z,984.67
2022-08-14T10:34:33.270Z,984.61
2022-08-14T10:35:30.924Z,984.72
2022-08-14T10:36:34.765Z,984.56
2022-08-14T10:37:28.142Z,984.49
2022-08-14T10:38:26.923Z,984.45
2022-08-14T10:39:26.920Z,984.42
2022-08-14T10:40:37.327Z,984.55
2022-08-14T10:41:31.739Z,984.45
2022-08-14T10:42:26.898Z,984.55
2022-08-14T10:43:26.886Z,984.57
2022-08-14T10:44:29.692Z,984.53
2022-08-14T10:45:26.879Z,984.56
2022-08-14T10:47:37.878Z,984.59
2022-08-14T10:47:40.604Z,984.49
2022-08-14T10:48:36.420Z,984.52
2022-08-14T10:49:27.867Z,984.42
2022-08-14T10:50:26.904Z,984.51
2022-08-14T10:51:26.892Z,984.39
2022-08-14T10:52:26.862Z,984.45
2022-08-14T10:53:26.860Z,984.40
2022-08-14T10:54:36.265Z,984.40
2022-08-14T10:55:26.845Z,984.42
2022-08-14T10:56:33.727Z,984.31
2022-08-14T10:57:27.832Z,984.27
2022-08-14T10:58:26.840Z,984.13
2022-08-14T10:59:35.484Z,984.25
2022-08-14T11:00:30.140Z,984.22
2022-08-14T11:01:27.823Z,984.31
2022-08-14T11:02:44.789Z,984.28
2022-08-14T11:03:55.197Z,984.24
2022-08-14T11:04:27.932Z,984.26
2022-08-14T11:05:26.844Z,984.16
2022-08-14T11:06:27.234Z,984.23
2022-08-14T11:07:26.793Z,984.23
2022-08-14T11:08:26.792Z,984.38
2022-08-14T11:09:31.467Z,984.26
2022-08-14T11:10:28.053Z,984.22
2022-08-14T11:11:26.771Z,984.17
2022-08-14T11:12:44.092Z,984.08
2022-08-14T11:13:28.813Z,984.22
2022-08-14T11:14:26.773Z,984.12
2022-08-14T11:15:26.785Z,984.19
2022-08-14T11:16:26.877Z,984.09
2022-08-14T11:17:26.753Z,984.12
2022-08-14T11:18:32.599Z,984.08
2022-08-14T11:19:26.756Z,983.97
2022-08-14T11:20:26.767Z,983.95
2022-08-14T11:21:26.861Z,984.05
2022-08-14T11:22:52.565Z,983.93
2022-08-14T11:23:27.723Z,983.92
2022-08-14T11:24:54.153Z,983.83
2022-08-14T11:25:43.858Z,983.82
2022-08-14T11:26:27.829Z,983.85
2022-08-14T11:27:33.439Z,983.87
2022-08-14T11:28:47.188Z,983.90
2022-08-14T11:29:27.810Z,983.83
2022-08-14T11:30:50.314Z,983.78
2022-08-14T11:31:27.715Z,983.75
2022-08-14T11:32:27.726Z,983.70
2022-08-14T11:33:26.683Z,983.90
2022-08-14T11:34:32.553Z,983.79
2022-08-14T11:35:26.675Z,983.82
2022-08-14T11:37:02.157Z,983.81
2022-08-14T11:37:36.357Z,983.92
2022-08-14T11:38:27.657Z,983.92
2022-08-14T11:39:34.555Z,983.86
2022-08-14T11:40:29.268Z,983.78
2022-08-14T11:41:26.652Z,983.93
2022-08-14T11:42:56.388Z,983.95
2022-08-14T11:43:29.478Z,983.89
2022-08-14T11:44:45.893Z,983.81
2022-08-14T11:45:29.896Z,983.87
2022-08-14T11:46:30.117Z,983.73
2022-08-14T11:47:35.603Z,983.72
2022-08-14T11:48:59.161Z,983.62
2022-08-14T11:49:26.634Z,983.71
2022-08-14T11:50:36.322Z,983.66
2022-08-14T11:51:30.429Z,983.73
2022-08-14T11:52:26.611Z,983.65
2022-08-14T11:53:26.618Z,983.64
2022-08-14T11:54:33.948Z,983.55
2022-08-14T11:55:27.578Z,983.53
2022-08-14T11:56:29.810Z,983.50
2022-08-14T11:57:26.602Z,983.62
2022-08-14T11:58:26.572Z,983.40
2022-08-14T11:59:32.907Z,983.46
2022-08-14T12:00:31.868Z,983.38
2022-08-14T12:01:26.598Z,983.31
2022-08-14T12:03:00.730Z,983.26
2022-08-14T12:03:46.263Z,983.24
2022-08-14T12:04:32.119Z,983.27
2022-08-14T12:05:26.597Z,983.27
2022-08-14T12:06:29.460Z,983.26
2022-08-14T12:07:27.574Z,983.21
2022-08-14T12:08:30.207Z,983.15
2022-08-14T12:09:26.547Z,983.17
2022-08-14T12:10:40.925Z,983.12
2022-08-14T12:11:27.535Z,983.11
2022-08-14T12:12:34.998Z,983.07
2022-08-14T12:13:27.554Z,983.01
2022-08-14T12:14:29.811Z,983.04
2022-08-14T12:15:27.070Z,983.01
2022-08-14T12:16:26.503Z,983.04
2022-08-14T12:17:26.484Z,983.11
2022-08-14T12:18:26.458Z,983.04
2022-08-14T12:19:26.482Z,983.11
2022-08-14T12:20:30.096Z,983.02
2022-08-14T12:21:29.539Z,983.10
2022-08-14T12:22:29.968Z,983.05
2022-08-14T12:23:26.440Z,982.98
2022-08-14T12:24:35.614Z,982.99
2022-08-14T12:25:27.453Z,983.05
2022-08-14T12:26:39.545Z,982.94
2022-08-14T12:27:26.430Z,982.99
2022-08-14T12:28:27.004Z,983.00
2022-08-14T12:29:27.435Z,982.93
2022-08-14T12:30:26.758Z,982.97